Metar Aviation Weather Data KPWM

72°F Temp
68°F Dewpoint
% Humidity
Temperature
MPH
0 KM/H
KTS
Calm
Due North

Wind Speed
Partly Cloudy
Conditions
Pressure 1013.52 (hPa) - 29.93 (in)
Visibility 10.0 (mi) - 16 (km)

Current Conditions
KPWM
Metar :KPWM 211851Z 00000KT 10SM FEW004 BKN034 OVC060 22/20 A2993 RMK AO2 RAE32 TSE11 SLP134 P0030 T02170200
Wed 21st August 14:51 pm

  Metar Aviation API Data Provided by https://www.checkwx.com/ PHP scripts by weather34.com ©2019